Time;durP1;ratioP1;P1;durP2;ratioP2;P2;SDS_P1;SDS_P2;PMS_P1;PMS_P2;Temp;Humidity;BMP_temperature;BMP_pressure;BME280_temperature;BME280_humidity;BME280_pressure;Samples;Min_cycle;Max_cycle;Signal;HPM_P1;HPM_P2
2022/07/11 00:00:02;;;;;;;18.30;9.63;;;;;;;;;;5020086;28;20034;-62
2022/07/11 00:02:28;;;;;;;18.95;9.43;;;;;;;;;;5011892;28;20030;-63
2022/07/11 00:04:54;;;;;;;17.88;9.73;;;;;;;;;;5010961;28;20517;-62
2022/07/11 00:07:20;;;;;;;22.05;10.00;;;;;;;;;;5012838;28;20030;-62
2022/07/11 00:09:46;;;;;;;20.92;9.40;;;;;;;;;;5012401;28;20036;-62
2022/07/11 00:12:12;;;;;;;18.33;9.10;;;;;;;;;;5012365;28;20034;-61
2022/07/11 00:14:39;;;;;;;18.10;10.52;;;;;;;;;;5012800;28;20025;-64
2022/07/11 00:17:06;;;;;;;19.48;10.23;;;;;;;;;;4995082;28;20030;-62
2022/07/11 00:19:32;;;;;;;20.92;9.68;;;;;;;;;;4994885;28;20032;-63
2022/07/11 00:21:58;;;;;;;19.42;9.80;;;;;;;;;;5012625;28;20033;-61
2022/07/11 00:24:24;;;;;;;17.40;9.68;;;;;;;;;;5012710;28;20038;-59
2022/07/11 00:26:51;;;;;;;21.33;10.40;;;;;;;;;;5011737;28;20478;-58
2022/07/11 00:29:17;;;;;;;20.75;10.38;;;;;;;;;;5012363;28;20132;-54
2022/07/11 00:31:43;;;;;;;21.40;10.25;;;;;;;;;;5012388;28;20081;-59
2022/07/11 00:34:09;;;;;;;26.75;10.45;;;;;;;;;;5012149;28;20029;-59
2022/07/11 00:36:35;;;;;;;20.90;9.63;;;;;;;;;;5012370;28;20021;-59
2022/07/11 00:39:01;;;;;;;18.90;10.27;;;;;;;;;;5012165;28;20053;-59
2022/07/11 00:41:27;;;;;;;19.05;9.18;;;;;;;;;;5012255;28;20393;-59
2022/07/11 00:43:54;;;;;;;18.27;9.48;;;;;;;;;;5012525;28;20029;-58
2022/07/11 00:46:20;;;;;;;19.65;9.85;;;;;;;;;;5012468;28;20026;-59
2022/07/11 00:48:47;;;;;;;18.30;9.48;;;;;;;;;;5012234;28;20030;-59
2022/07/11 00:51:13;;;;;;;19.98;9.38;;;;;;;;;;5012459;28;20045;-60
2022/07/11 00:53:39;;;;;;;21.23;10.07;;;;;;;;;;5013372;28;20022;-58
2022/07/11 00:56:06;;;;;;;18.55;9.32;;;;;;;;;;5012830;28;20026;-59
2022/07/11 00:58:33;;;;;;;19.58;9.02;;;;;;;;;;5020456;28;20052;-59
2022/07/11 01:00:59;;;;;;;18.95;9.57;;;;;;;;;;5014480;28;20029;-60
2022/07/11 01:03:25;;;;;;;19.98;10.38;;;;;;;;;;5014503;28;20036;-59
2022/07/11 01:05:51;;;;;;;20.92;9.73;;;;;;;;;;5031858;28;20040;-60
2022/07/11 01:08:17;;;;;;;17.17;9.40;;;;;;;;;;5031552;28;20478;-63
2022/07/11 01:10:43;;;;;;;19.50;8.80;;;;;;;;;;5031979;28;20026;-59
2022/07/11 01:13:09;;;;;;;17.85;9.30;;;;;;;;;;5031933;28;20036;-59
2022/07/11 01:15:36;;;;;;;21.75;9.25;;;;;;;;;;5031822;28;20029;-59
2022/07/11 01:18:02;;;;;;;20.38;9.77;;;;;;;;;;5013742;28;20037;-58
2022/07/11 01:20:28;;;;;;;22.15;10.20;;;;;;;;;;5031799;28;20025;-59
2022/07/11 01:22:57;;;;;;;17.35;9.52;;;;;;;;;;5031848;28;20032;-59
2022/07/11 01:25:34;;;;;;;19.75;8.93;;;;;;;;;;5014281;28;20037;-58
2022/07/11 01:28:01;;;;;;;20.80;9.20;;;;;;;;;;5013934;28;20030;-59
2022/07/11 01:30:27;;;;;;;20.85;10.45;;;;;;;;;;5014184;28;20030;-59
2022/07/11 01:32:54;;;;;;;18.25;9.30;;;;;;;;;;5035316;28;20025;-59
2022/07/11 01:35:20;;;;;;;22.65;10.32;;;;;;;;;;5035507;28;20112;-60
2022/07/11 01:37:47;;;;;;;19.52;9.95;;;;;;;;;;5035497;28;20100;-62
2022/07/11 01:40:13;;;;;;;22.08;9.80;;;;;;;;;;5035614;28;20390;-61
2022/07/11 01:42:39;;;;;;;20.02;10.05;;;;;;;;;;5035542;28;20536;-59
2022/07/11 01:45:05;;;;;;;16.60;8.98;;;;;;;;;;5035434;28;20036;-56
2022/07/11 01:47:31;;;;;;;20.80;10.10;;;;;;;;;;5035145;28;20410;-60
2022/07/11 01:49:57;;;;;;;19.25;10.23;;;;;;;;;;5017544;28;20033;-55
2022/07/11 01:52:23;;;;;;;19.27;9.30;;;;;;;;;;5035392;28;20025;-58
2022/07/11 01:54:49;;;;;;;19.27;10.13;;;;;;;;;;5035316;28;20032;-60
2022/07/11 01:57:16;;;;;;;18.30;9.45;;;;;;;;;;5035103;28;20032;-60
2022/07/11 01:59:42;;;;;;;21.17;10.32;;;;;;;;;;5034979;28;20017;-56
2022/07/11 02:02:08;;;;;;;20.20;9.70;;;;;;;;;;5035167;28;20032;-62
2022/07/11 02:04:34;;;;;;;17.90;9.70;;;;;;;;;;5017090;28;20021;-60
2022/07/11 02:07:00;;;;;;;18.85;9.63;;;;;;;;;;5034850;28;20469;-59
2022/07/11 02:09:26;;;;;;;18.55;9.85;;;;;;;;;;5034765;28;20115;-59
2022/07/11 02:11:52;;;;;;;17.77;9.70;;;;;;;;;;5034674;28;20040;-58
2022/07/11 02:14:18;;;;;;;19.92;10.13;;;;;;;;;;5034854;28;20068;-58
2022/07/11 02:16:45;;;;;;;17.92;9.52;;;;;;;;;;5034647;28;20077;-58
2022/07/11 02:19:11;;;;;;;18.55;9.65;;;;;;;;;;5034354;28;20115;-60
2022/07/11 02:21:38;;;;;;;18.38;10.30;;;;;;;;;;5016903;28;20071;-60
2022/07/11 02:24:04;;;;;;;18.70;10.50;;;;;;;;;;5034278;28;20426;-56
2022/07/11 02:26:30;;;;;;;16.60;9.48;;;;;;;;;;5034613;28;20133;-60
2022/07/11 02:28:56;;;;;;;17.25;9.43;;;;;;;;;;5016564;28;20533;-60
2022/07/11 02:31:22;;;;;;;17.85;8.65;;;;;;;;;;5034359;28;20552;-60
2022/07/11 02:33:49;;;;;;;18.45;9.82;;;;;;;;;;5034306;28;20029;-56
2022/07/11 02:36:15;;;;;;;20.20;9.63;;;;;;;;;;5034389;28;20020;-56
2022/07/11 02:38:42;;;;;;;20.38;9.32;;;;;;;;;;5034260;28;20048;-56
2022/07/11 02:41:08;;;;;;;22.38;9.73;;;;;;;;;;5034332;28;20029;-56
2022/07/11 02:43:34;;;;;;;16.48;8.73;;;;;;;;;;5033179;28;20045;-59
2022/07/11 02:46:00;;;;;;;19.88;9.63;;;;;;;;;;5033966;28;20466;-58
2022/07/11 02:48:26;;;;;;;18.42;9.88;;;;;;;;;;5016442;28;20403;-55
2022/07/11 02:50:52;;;;;;;18.92;9.93;;;;;;;;;;5034101;28;20113;-60
2022/07/11 02:53:18;;;;;;;16.13;8.80;;;;;;;;;;5034129;28;20036;-59
2022/07/11 02:55:45;;;;;;;21.73;9.60;;;;;;;;;;5034109;28;20030;-58
2022/07/11 02:58:11;;;;;;;19.70;9.45;;;;;;;;;;5033634;28;20499;-57
2022/07/11 03:00:37;;;;;;;17.23;9.27;;;;;;;;;;5033780;28;20034;-59
2022/07/11 03:03:03;;;;;;;17.13;9.32;;;;;;;;;;5033838;28;20032;-59
2022/07/11 03:05:29;;;;;;;19.52;9.40;;;;;;;;;;5034819;28;20112;-59
2022/07/11 03:07:55;;;;;;;15.55;9.40;;;;;;;;;;5034173;28;20033;-58
2022/07/11 03:10:23;;;;;;;16.85;8.65;;;;;;;;;;5034090;28;20029;-60
2022/07/11 03:12:49;;;;;;;17.90;9.55;;;;;;;;;;5033806;28;20408;-59
2022/07/11 03:15:15;;;;;;;19.77;10.23;;;;;;;;;;5033476;28;20023;-60
2022/07/11 03:17:41;;;;;;;17.70;8.52;;;;;;;;;;5033607;28;20014;-60
2022/07/11 03:20:08;;;;;;;19.40;9.15;;;;;;;;;;5033738;28;20105;-59
2022/07/11 03:22:34;;;;;;;15.50;8.50;;;;;;;;;;5033744;28;20025;-59
2022/07/11 03:25:03;;;;;;;17.35;8.98;;;;;;;;;;5033389;28;20033;-54
2022/07/11 03:27:29;;;;;;;15.90;8.63;;;;;;;;;;5033363;28;20033;-62
2022/07/11 03:29:55;;;;;;;16.77;9.35;;;;;;;;;;5033216;28;20048;-60
2022/07/11 03:32:22;;;;;;;19.17;9.10;;;;;;;;;;5033185;28;20065;-58
2022/07/11 03:35:40;;;;;;;18.15;9.32;;;;;;;;;;5033302;28;20021;-58
2022/07/11 03:37:34;;;;;;;19.38;9.50;;;;;;;;;;5032638;28;20032;-59
2022/07/11 03:40:00;;;;;;;16.35;8.90;;;;;;;;;;5033038;28;20021;-57
2022/07/11 03:42:26;;;;;;;17.45;8.90;;;;;;;;;;5032938;28;20022;-59
2022/07/11 03:44:52;;;;;;;18.13;8.73;;;;;;;;;;5033123;28;20025;-60
2022/07/11 03:47:19;;;;;;;15.85;8.57;;;;;;;;;;5015124;28;20025;-59
2022/07/11 03:49:45;;;;;;;16.73;8.60;;;;;;;;;;5032969;28;20025;-57
2022/07/11 03:52:12;;;;;;;16.25;9.20;;;;;;;;;;5032827;28;20371;-59
2022/07/11 03:54:38;;;;;;;20.75;9.32;;;;;;;;;;5015026;28;20032;-59
2022/07/11 03:57:04;;;;;;;17.95;9.57;;;;;;;;;;5032449;28;20473;-63
2022/07/11 03:59:30;;;;;;;16.65;9.40;;;;;;;;;;5032526;28;20031;-55
2022/07/11 04:01:56;;;;;;;17.70;9.25;;;;;;;;;;5033000;28;20100;-60
2022/07/11 04:04:22;;;;;;;16.90;9.25;;;;;;;;;;5032857;28;20032;-57
2022/07/11 04:06:48;;;;;;;16.92;9.18;;;;;;;;;;5032872;28;20041;-59
2022/07/11 04:09:14;;;;;;;18.75;9.50;;;;;;;;;;5014993;28;20072;-61
2022/07/11 04:11:40;;;;;;;17.20;9.77;;;;;;;;;;5032430;28;20179;-58
2022/07/11 04:14:06;;;;;;;17.80;9.80;;;;;;;;;;5032463;28;20628;-61
2022/07/11 04:16:32;;;;;;;16.08;9.27;;;;;;;;;;5032870;28;20108;-61
2022/07/11 04:18:58;;;;;;;21.27;9.80;;;;;;;;;;5031769;28;20401;-59
2022/07/11 04:21:24;;;;;;;17.92;9.48;;;;;;;;;;5032214;28;20036;-53
2022/07/11 04:23:50;;;;;;;19.38;9.98;;;;;;;;;;5032345;28;20037;-57
2022/07/11 04:26:16;;;;;;;15.45;8.95;;;;;;;;;;5032202;28;20401;-57
2022/07/11 04:28:42;;;;;;;17.13;9.20;;;;;;;;;;5031895;28;20033;-59
2022/07/11 04:31:10;;;;;;;17.85;9.40;;;;;;;;;;5032263;28;20039;-59
2022/07/11 04:33:36;;;;;;;17.40;9.23;;;;;;;;;;5032230;28;20038;-59
2022/07/11 04:36:02;;;;;;;19.33;9.90;;;;;;;;;;5032195;28;20017;-60
2022/07/11 04:38:28;;;;;;;16.38;10.50;;;;;;;;;;5032176;28;20469;-59
2022/07/11 04:40:54;;;;;;;19.90;10.98;;;;;;;;;;5032353;28;20025;-60
2022/07/11 04:43:20;;;;;;;18.50;10.73;;;;;;;;;;5032620;28;20083;-59
2022/07/11 04:45:46;;;;;;;18.48;10.82;;;;;;;;;;5032083;28;20025;-61
2022/07/11 04:48:12;;;;;;;17.10;10.93;;;;;;;;;;5031976;28;20026;-56
2022/07/11 04:50:38;;;;;;;18.75;11.02;;;;;;;;;;5032362;28;20390;-60
2022/07/11 04:53:04;;;;;;;18.42;9.95;;;;;;;;;;5032041;28;20053;-59
2022/07/11 04:55:30;;;;;;;17.35;10.45;;;;;;;;;;5014169;28;20440;-59
2022/07/11 04:57:56;;;;;;;19.25;11.93;;;;;;;;;;5032262;28;20116;-62
2022/07/11 05:00:22;;;;;;;19.00;10.52;;;;;;;;;;5032379;28;20069;-62
2022/07/11 05:02:48;;;;;;;17.85;10.70;;;;;;;;;;5032056;28;20156;-60
2022/07/11 05:05:14;;;;;;;18.42;10.02;;;;;;;;;;5014293;28;20025;-56
2022/07/11 05:07:40;;;;;;;16.85;10.45;;;;;;;;;;5035020;28;20120;-61
2022/07/11 05:10:06;;;;;;;18.30;10.10;;;;;;;;;;5035983;28;20134;-60
2022/07/11 05:12:32;;;;;;;17.75;10.57;;;;;;;;;;5036004;28;20081;-58
2022/07/11 05:14:58;;;;;;;16.40;9.90;;;;;;;;;;5036053;28;20363;-56
2022/07/11 05:17:25;;;;;;;16.67;10.30;;;;;;;;;;5035368;28;20083;-60
2022/07/11 05:19:51;;;;;;;17.83;11.18;;;;;;;;;;5036114;28;20390;-60
2022/07/11 05:22:17;;;;;;;17.52;10.07;;;;;;;;;;5035569;28;20030;-59
2022/07/11 05:24:43;;;;;;;16.27;10.20;;;;;;;;;;5035726;28;20041;-61
2022/07/11 05:27:09;;;;;;;19.25;11.20;;;;;;;;;;5035492;28;20032;-60
2022/07/11 05:29:35;;;;;;;21.92;10.88;;;;;;;;;;5035721;28;20029;-60
2022/07/11 05:32:01;;;;;;;16.98;10.30;;;;;;;;;;5035823;28;20029;-59
2022/07/11 05:34:27;;;;;;;17.23;10.13;;;;;;;;;;5035927;28;20085;-59
2022/07/11 05:36:53;;;;;;;18.50;11.27;;;;;;;;;;5035443;28;20026;-60
2022/07/11 05:39:19;;;;;;;16.40;10.25;;;;;;;;;;5035435;28;20381;-60
2022/07/11 05:41:45;;;;;;;16.25;9.68;;;;;;;;;;5035757;28;20029;-60
2022/07/11 05:44:11;;;;;;;18.00;10.30;;;;;;;;;;5035712;28;20397;-64
2022/07/11 05:46:40;;;;;;;18.85;10.30;;;;;;;;;;5035441;28;20025;-60
2022/07/11 05:49:09;;;;;;;16.95;9.90;;;;;;;;;;5034979;28;20105;-59
2022/07/11 05:51:36;;;;;;;17.33;9.10;;;;;;;;;;5035027;28;20032;-62
2022/07/11 05:54:02;;;;;;;17.88;10.05;;;;;;;;;;5034797;28;20537;-59
2022/07/11 05:56:29;;;;;;;15.43;9.50;;;;;;;;;;5035178;28;20064;-58
2022/07/11 05:58:55;;;;;;;16.10;8.18;;;;;;;;;;5017148;28;20025;-60
2022/07/11 06:01:22;;;;;;;14.80;8.50;;;;;;;;;;5035982;28;20500;-61
2022/07/11 06:03:48;;;;;;;15.90;8.55;;;;;;;;;;5035322;28;20079;-58
2022/07/11 06:06:14;;;;;;;16.58;9.40;;;;;;;;;;5036213;28;20030;-61
2022/07/11 06:08:40;;;;;;;16.45;9.45;;;;;;;;;;5035448;28;20402;-57
2022/07/11 06:11:06;;;;;;;17.00;8.43;;;;;;;;;;5034718;28;20128;-60
2022/07/11 06:13:32;;;;;;;14.45;8.20;;;;;;;;;;5035084;28;20018;-60
2022/07/11 06:15:58;;;;;;;14.95;8.98;;;;;;;;;;5017094;28;20423;-59
2022/07/11 06:18:25;;;;;;;15.95;9.40;;;;;;;;;;5034501;28;20102;-59
2022/07/11 06:20:51;;;;;;;16.05;9.50;;;;;;;;;;5034839;28;20022;-60
2022/07/11 06:23:17;;;;;;;17.70;9.10;;;;;;;;;;5034920;28;20032;-59
2022/07/11 06:25:43;;;;;;;17.23;9.18;;;;;;;;;;5036351;28;20060;-58
2022/07/11 06:28:09;;;;;;;15.05;8.60;;;;;;;;;;5034717;28;20397;-60
2022/07/11 06:30:36;;;;;;;16.10;8.57;;;;;;;;;;5035442;28;20108;-59
2022/07/11 06:33:03;;;;;;;20.23;9.27;;;;;;;;;;5034842;28;20075;-59
2022/07/11 06:35:29;;;;;;;14.75;9.05;;;;;;;;;;5034050;28;20025;-61
2022/07/11 06:37:56;;;;;;;15.43;8.60;;;;;;;;;;5034333;28;20045;-61
2022/07/11 06:40:23;;;;;;;16.55;8.57;;;;;;;;;;5034486;28;20032;-61
2022/07/11 06:42:49;;;;;;;14.70;8.93;;;;;;;;;;5034592;28;20032;-61
2022/07/11 06:45:16;;;;;;;14.70;8.85;;;;;;;;;;5034299;28;20056;-60
2022/07/11 06:47:42;;;;;;;15.20;8.27;;;;;;;;;;5033928;28;20048;-60
2022/07/11 06:50:08;;;;;;;14.75;8.75;;;;;;;;;;5034214;28;20058;-59
2022/07/11 06:52:34;;;;;;;15.02;8.65;;;;;;;;;;5033923;28;20116;-62
2022/07/11 06:55:01;;;;;;;16.23;8.75;;;;;;;;;;5034096;28;20105;-63
2022/07/11 06:57:27;;;;;;;15.60;9.05;;;;;;;;;;5033913;28;20382;-61
2022/07/11 06:59:53;;;;;;;15.45;9.63;;;;;;;;;;5033540;28;20021;-60
2022/07/11 07:02:19;;;;;;;16.05;9.18;;;;;;;;;;5033788;28;20037;-62
2022/07/11 07:04:45;;;;;;;15.60;9.43;;;;;;;;;;5033500;28;20049;-60
2022/07/11 07:07:11;;;;;;;15.65;9.32;;;;;;;;;;5033258;28;20017;-58
2022/07/11 07:09:37;;;;;;;16.17;9.68;;;;;;;;;;5033566;28;20500;-60
2022/07/11 07:12:03;;;;;;;16.15;10.30;;;;;;;;;;5033767;28;20029;-57
2022/07/11 07:14:29;;;;;;;16.17;9.98;;;;;;;;;;5033342;28;20500;-59
2022/07/11 07:16:55;;;;;;;16.17;9.48;;;;;;;;;;5033061;28;20030;-59
2022/07/11 07:19:21;;;;;;;16.50;9.80;;;;;;;;;;5033489;28;20029;-61
2022/07/11 07:21:47;;;;;;;15.45;9.93;;;;;;;;;;5033642;28;20033;-61
2022/07/11 07:24:13;;;;;;;18.33;9.65;;;;;;;;;;5033580;28;20405;-62
2022/07/11 07:26:39;;;;;;;16.00;10.15;;;;;;;;;;5015809;28;20033;-58
2022/07/11 07:29:05;;;;;;;14.88;9.10;;;;;;;;;;5032794;28;20021;-60
2022/07/11 07:31:31;;;;;;;15.07;9.27;;;;;;;;;;5033695;28;20075;-56
2022/07/11 07:33:57;;;;;;;15.95;10.10;;;;;;;;;;5033552;28;20079;-58
2022/07/11 07:36:23;;;;;;;16.60;9.50;;;;;;;;;;5033602;28;20025;-60
2022/07/11 07:38:49;;;;;;;14.70;9.95;;;;;;;;;;5033231;28;20025;-62
2022/07/11 07:41:16;;;;;;;16.02;10.93;;;;;;;;;;5033560;28;20119;-62
2022/07/11 07:43:42;;;;;;;15.38;10.60;;;;;;;;;;5033123;28;20056;-61
2022/07/11 07:46:11;;;;;;;15.60;10.90;;;;;;;;;;5032993;28;20504;-58
2022/07/11 07:48:38;;;;;;;17.17;11.32;;;;;;;;;;5015199;28;20409;-60
2022/07/11 07:51:04;;;;;;;15.60;11.15;;;;;;;;;;5015393;28;20029;-62
2022/07/11 07:53:30;;;;;;;15.68;11.10;;;;;;;;;;5033026;28;20101;-55
2022/07/11 07:55:56;;;;;;;14.95;10.90;;;;;;;;;;5032919;28;20072;-62
2022/07/11 07:58:22;;;;;;;14.27;9.98;;;;;;;;;;5032716;28;20053;-61
2022/07/11 08:03:33;;;;;;;14.77;9.20;;;;;;;;;;5033531;28;20028;-59
2022/07/11 08:05:59;;;;;;;14.00;8.82;;;;;;;;;;5032843;28;20033;-58
2022/07/11 08:08:25;;;;;;;14.68;9.10;;;;;;;;;;5033083;28;20037;-60
2022/07/11 08:10:52;;;;;;;13.82;8.02;;;;;;;;;;5033114;28;20033;-60
2022/07/11 08:13:19;;;;;;;13.68;7.75;;;;;;;;;;5032918;28;20033;-59
2022/07/11 08:15:45;;;;;;;16.73;7.88;;;;;;;;;;5033517;28;20017;-61
2022/07/11 08:18:11;;;;;;;13.93;8.32;;;;;;;;;;5032863;28;20113;-58
2022/07/11 08:20:37;;;;;;;14.02;7.75;;;;;;;;;;5033123;28;20068;-56
2022/07/11 08:23:04;;;;;;;14.20;8.20;;;;;;;;;;5033079;28;20033;-56
2022/07/11 08:25:30;;;;;;;13.93;8.00;;;;;;;;;;5018017;28;20509;-58
2022/07/11 08:27:56;;;;;;;13.93;7.53;;;;;;;;;;5012830;28;20052;-58
2022/07/11 08:30:23;;;;;;;14.70;8.18;;;;;;;;;;5012894;28;20061;-58
2022/07/11 08:32:48;;;;;;;13.23;7.68;;;;;;;;;;4995076;28;20049;-60
2022/07/11 08:35:15;;;;;;;14.30;7.65;;;;;;;;;;5012652;28;20048;-63
2022/07/11 08:37:41;;;;;;;15.30;7.82;;;;;;;;;;5012363;28;20025;-62
2022/07/11 08:40:07;;;;;;;14.15;7.93;;;;;;;;;;5012457;28;20030;-64
2022/07/11 08:42:37;;;;;;;14.40;7.93;;;;;;;;;;5012253;28;20040;-63
2022/07/11 08:45:03;;;;;;;14.00;8.30;;;;;;;;;;5012647;28;20037;-63
2022/07/11 08:47:30;;;;;;;13.82;8.20;;;;;;;;;;5012448;28;20497;-63
2022/07/11 08:49:57;;;;;;;16.40;8.73;;;;;;;;;;5012564;28;20025;-63
2022/07/11 08:52:24;;;;;;;13.98;8.07;;;;;;;;;;5012630;28;20025;-63
2022/07/11 08:54:50;;;;;;;13.57;7.70;;;;;;;;;;5013353;28;20496;-64
2022/07/11 08:57:16;;;;;;;14.32;8.45;;;;;;;;;;5025152;28;20026;-64
2022/07/11 08:59:43;;;;;;;15.20;8.90;;;;;;;;;;5016739;28;20026;-63
2022/07/11 09:02:10;;;;;;;15.32;9.00;;;;;;;;;;4671738;28;10000389;-63
2022/07/11 09:04:36;;;;;;;14.32;8.82;;;;;;;;;;5024182;28;20029;-63
2022/07/11 09:07:02;;;;;;;14.52;8.93;;;;;;;;;;5009479;28;20026;-63
2022/07/11 09:09:29;;;;;;;17.33;10.32;;;;;;;;;;5016738;28;20025;-64
2022/07/11 09:11:56;;;;;;;15.55;11.35;;;;;;;;;;5020210;28;20057;-63
2022/07/11 09:14:25;;;;;;;15.02;10.60;;;;;;;;;;5020421;28;20033;-61
2022/07/11 09:16:52;;;;;;;15.02;10.50;;;;;;;;;;5019895;28;20021;-63
2022/07/11 09:19:22;;;;;;;15.00;10.18;;;;;;;;;;5019328;28;20009;-64
2022/07/11 09:25:23;;;;;;;14.80;10.55;;;;;;;;;;5011860;28;20414;-63
2022/07/11 09:28:05;;;;;;;14.70;10.30;;;;;;;;;;5012169;28;20394;-63
2022/07/11 09:30:31;;;;;;;14.65;10.32;;;;;;;;;;5013119;28;20022;-63
2022/07/11 09:33:09;;;;;;;15.15;10.13;;;;;;;;;;5014903;28;20087;-64
2022/07/11 09:35:36;;;;;;;15.82;10.65;;;;;;;;;;5022235;28;20022;-64
2022/07/11 09:38:06;;;;;;;16.67;10.00;;;;;;;;;;5021546;28;20046;-63
2022/07/11 09:40:32;;;;;;;20.83;10.88;;;;;;;;;;5020092;28;20064;-63
2022/07/11 09:42:59;;;;;;;15.07;9.77;;;;;;;;;;5020803;28;20088;-63
2022/07/11 09:45:26;;;;;;;15.35;10.15;;;;;;;;;;5023656;28;20029;-62
2022/07/11 09:47:53;;;;;;;14.40;9.40;;;;;;;;;;5022900;28;20022;-65
2022/07/11 09:50:19;;;;;;;14.00;8.80;;;;;;;;;;5025936;28;20021;-63
2022/07/11 09:53:04;;;;;;;15.65;8.13;;;;;;;;;;5014522;28;20025;-63
2022/07/11 09:55:30;;;;;;;14.43;8.05;;;;;;;;;;5023781;28;20084;-63
2022/07/11 09:57:56;;;;;;;14.25;7.88;;;;;;;;;;5028845;28;20429;-63
2022/07/11 10:00:22;;;;;;;14.00;7.90;;;;;;;;;;5035906;28;20026;-62
2022/07/11 10:02:49;;;;;;;14.30;7.68;;;;;;;;;;5036099;28;20081;-63
2022/07/11 10:05:15;;;;;;;13.63;7.72;;;;;;;;;;5035660;28;20025;-62
2022/07/11 10:07:41;;;;;;;14.90;8.13;;;;;;;;;;5017548;28;20128;-63
2022/07/11 10:10:07;;;;;;;15.55;7.78;;;;;;;;;;5017775;28;20075;-63
2022/07/11 10:12:34;;;;;;;14.88;7.80;;;;;;;;;;5035487;28;20021;-62
2022/07/11 10:15:03;;;;;;;14.18;8.20;;;;;;;;;;5022195;28;20371;-62
2022/07/11 10:17:35;;;;;;;15.85;8.60;;;;;;;;;;5014885;28;20045;-62
2022/07/11 10:20:07;;;;;;;13.40;7.30;;;;;;;;;;5014740;28;20026;-62
2022/07/11 10:22:41;;;;;;;14.75;7.70;;;;;;;;;;5015141;28;20034;-65
2022/07/11 10:25:18;;;;;;;15.15;7.88;;;;;;;;;;5014867;28;20108;-62
2022/07/11 10:27:44;;;;;;;13.65;7.20;;;;;;;;;;5014552;28;20034;-63
2022/07/11 10:30:10;;;;;;;13.30;7.22;;;;;;;;;;5015405;28;20026;-63
2022/07/11 10:32:55;;;;;;;13.95;7.30;;;;;;;;;;5015266;28;20032;-64
2022/07/11 10:35:21;;;;;;;14.18;8.05;;;;;;;;;;5019449;28;20049;-63
2022/07/11 10:37:48;;;;;;;13.10;7.35;;;;;;;;;;5023444;28;20027;-63
2022/07/11 10:40:14;;;;;;;12.95;7.10;;;;;;;;;;5026240;28;20041;-64
2022/07/11 10:42:41;;;;;;;13.85;7.32;;;;;;;;;;5023739;28;20382;-63
2022/07/11 10:45:12;;;;;;;13.45;7.70;;;;;;;;;;5023491;28;20470;-64
2022/07/11 10:47:44;;;;;;;13.30;7.60;;;;;;;;;;5024172;28;20025;-62
2022/07/11 10:50:19;;;;;;;13.60;7.72;;;;;;;;;;5024385;28;20060;-64
2022/07/11 10:52:48;;;;;;;13.85;7.70;;;;;;;;;;5023953;28;20077;-63
2022/07/11 10:55:20;;;;;;;14.30;7.93;;;;;;;;;;5024880;28;20573;-64
2022/07/11 10:57:58;;;;;;;13.90;7.72;;;;;;;;;;5024254;28;20022;-63
2022/07/11 11:00:24;;;;;;;13.60;7.40;;;;;;;;;;5023017;28;20406;-64
2022/07/11 11:03:01;;;;;;;13.43;7.72;;;;;;;;;;5024496;28;20029;-63
2022/07/11 11:05:49;;;;;;;13.63;7.78;;;;;;;;;;5023076;28;20036;-64
2022/07/11 11:08:36;;;;;;;13.85;7.63;;;;;;;;;;5024723;28;20025;-64
2022/07/11 11:11:03;;;;;;;14.18;8.25;;;;;;;;;;5024068;28;20064;-64
2022/07/11 11:13:30;;;;;;;14.48;7.80;;;;;;;;;;5027604;28;20546;-64
2022/07/11 11:15:57;;;;;;;13.60;7.63;;;;;;;;;;5023344;28;20457;-64
2022/07/11 11:18:23;;;;;;;13.68;8.07;;;;;;;;;;5023878;28;20521;-64
2022/07/11 11:20:58;;;;;;;13.85;8.05;;;;;;;;;;5004811;28;20018;-64
2022/07/11 11:23:25;;;;;;;14.10;8.35;;;;;;;;;;4676363;28;10000397;-63
2022/07/11 11:25:51;;;;;;;14.40;7.93;;;;;;;;;;5024280;28;20409;-64
2022/07/11 11:28:21;;;;;;;14.63;8.50;;;;;;;;;;5018085;28;20033;-65
2022/07/11 11:30:54;;;;;;;13.70;7.65;;;;;;;;;;5024020;28;20605;-64
2022/07/11 11:33:20;;;;;;;13.70;7.90;;;;;;;;;;5018051;28;20026;-65
2022/07/11 11:35:46;;;;;;;13.60;7.82;;;;;;;;;;5015254;28;20018;-64
2022/07/11 11:38:12;;;;;;;13.60;8.00;;;;;;;;;;5015320;28;20080;-64
2022/07/11 11:40:47;;;;;;;13.60;8.13;;;;;;;;;;5021816;28;20014;-65
2022/07/11 11:43:23;;;;;;;14.27;8.68;;;;;;;;;;5034152;28;20115;-65
2022/07/11 11:45:53;;;;;;;14.55;8.55;;;;;;;;;;5033752;28;20029;-64
2022/07/11 11:48:35;;;;;;;15.05;8.60;;;;;;;;;;5015955;28;20033;-64
2022/07/11 11:51:11;;;;;;;13.50;8.10;;;;;;;;;;5017335;28;20029;-64
2022/07/11 11:53:44;;;;;;;13.70;8.18;;;;;;;;;;5035156;28;20033;-64
2022/07/11 11:56:16;;;;;;;13.57;8.07;;;;;;;;;;5035237;28;20014;-65
2022/07/11 11:58:45;;;;;;;14.80;8.25;;;;;;;;;;5033799;28;20048;-63
2022/07/11 12:01:12;;;;;;;13.70;8.20;;;;;;;;;;5033094;28;20045;-63
2022/07/11 12:03:52;;;;;;;13.98;8.38;;;;;;;;;;5033129;28;20503;-65
2022/07/11 12:06:21;;;;;;;14.15;8.20;;;;;;;;;;5033163;28;20093;-65
2022/07/11 12:08:47;;;;;;;14.90;8.50;;;;;;;;;;5033108;28;20035;-65
2022/07/11 12:11:14;;;;;;;14.75;8.95;;;;;;;;;;5016455;28;20104;-65
2022/07/11 12:13:41;;;;;;;14.98;8.40;;;;;;;;;;5033552;28;20017;-65
2022/07/11 12:19:00;;;;;;;14.40;8.25;;;;;;;;;;5030570;28;20083;-64
2022/07/11 12:21:26;;;;;;;14.00;8.20;;;;;;;;;;5024549;28;20473;-64
2022/07/11 12:23:52;;;;;;;13.60;8.15;;;;;;;;;;5015183;28;20076;-64
2022/07/11 12:26:18;;;;;;;13.88;8.43;;;;;;;;;;4679249;22;9999875;-58
2022/07/11 12:29:22;;;;;;;13.60;8.20;;;;;;;;;;5006812;28;20044;-58
2022/07/11 12:31:58;;;;;;;15.43;8.27;;;;;;;;;;4931279;29;20039;-58
2022/07/11 12:34:44;;;;;;;14.10;8.30;;;;;;;;;;4930647;29;20092;-60
2022/07/11 12:37:17;;;;;;;13.93;8.48;;;;;;;;;;4984862;28;20070;-57
2022/07/11 12:39:51;;;;;;;14.50;8.60;;;;;;;;;;5012671;28;20029;-60
2022/07/11 12:42:23;;;;;;;15.05;8.57;;;;;;;;;;4972866;28;20662;-59
2022/07/11 12:44:59;;;;;;;14.57;8.55;;;;;;;;;;4972899;28;20536;-60
2022/07/11 12:47:26;;;;;;;14.00;8.40;;;;;;;;;;4972842;28;20102;-58
2022/07/11 12:49:52;;;;;;;13.98;8.38;;;;;;;;;;4972670;28;20074;-61
2022/07/11 12:52:18;;;;;;;13.90;8.45;;;;;;;;;;4972057;28;20031;-59
2022/07/11 12:54:44;;;;;;;13.80;8.50;;;;;;;;;;4972938;28;20034;-58
2022/07/11 12:57:15;;;;;;;14.13;8.38;;;;;;;;;;4972898;28;20023;-55
2022/07/11 12:59:41;;;;;;;14.02;8.82;;;;;;;;;;4971813;28;20540;-59
2022/07/11 13:02:09;;;;;;;14.30;8.68;;;;;;;;;;4971822;28;20035;-58
2022/07/11 13:04:40;;;;;;;13.55;8.05;;;;;;;;;;4972452;28;20067;-60
2022/07/11 13:10:14;;;;;;;13.80;8.40;;;;;;;;;;4973255;28;20025;-56
2022/07/11 13:12:41;;;;;;;13.90;9.23;;;;;;;;;;4971574;28;20023;-59
2022/07/11 13:15:11;;;;;;;14.25;9.23;;;;;;;;;;4983304;28;20026;-58
2022/07/11 13:17:41;;;;;;;14.60;9.50;;;;;;;;;;4992334;28;20042;-59
2022/07/11 13:20:12;;;;;;;14.20;9.20;;;;;;;;;;4992323;28;20031;-57
2022/07/11 13:22:39;;;;;;;14.15;9.13;;;;;;;;;;4992329;28;20030;-55
2022/07/11 13:25:05;;;;;;;14.05;9.00;;;;;;;;;;4992027;28;20483;-58
2022/07/11 13:27:31;;;;;;;14.30;8.80;;;;;;;;;;4993427;28;20077;-56
2022/07/11 13:29:58;;;;;;;14.00;8.90;;;;;;;;;;4996236;28;20049;-58
2022/07/11 13:32:24;;;;;;;13.90;8.80;;;;;;;;;;4995967;28;20034;-59
2022/07/11 13:34:50;;;;;;;13.82;8.82;;;;;;;;;;4995925;28;20030;-57
2022/07/11 13:37:17;;;;;;;13.70;8.68;;;;;;;;;;4995669;28;20042;-60
2022/07/11 13:39:43;;;;;;;14.82;9.40;;;;;;;;;;4996061;28;20022;-58
2022/07/11 13:42:09;;;;;;;16.85;9.35;;;;;;;;;;4995774;28;20026;-58
2022/07/11 13:44:35;;;;;;;18.13;9.27;;;;;;;;;;4995789;28;20058;-58
2022/07/11 13:47:01;;;;;;;14.80;9.20;;;;;;;;;;4996001;28;20041;-60
2022/07/11 13:49:29;;;;;;;14.52;8.63;;;;;;;;;;4995551;28;20026;-54
2022/07/11 13:51:55;;;;;;;14.20;9.35;;;;;;;;;;4995577;28;20026;-58
2022/07/11 13:54:21;;;;;;;13.95;9.13;;;;;;;;;;4995649;28;20026;-59
2022/07/11 13:56:47;;;;;;;14.10;9.30;;;;;;;;;;4995095;28;20022;-59
2022/07/11 13:59:13;;;;;;;13.98;9.30;;;;;;;;;;4996043;28;20466;-60
2022/07/11 14:01:39;;;;;;;14.75;8.75;;;;;;;;;;4995626;28;20022;-59
2022/07/11 14:04:05;;;;;;;13.85;9.10;;;;;;;;;;4995516;28;20099;-59
2022/07/11 14:06:31;;;;;;;14.07;8.73;;;;;;;;;;4995604;28;20026;-60
2022/07/11 14:08:57;;;;;;;16.88;9.52;;;;;;;;;;4995610;28;20026;-52
2022/07/11 14:11:23;;;;;;;15.02;9.38;;;;;;;;;;4994114;28;20133;-54
2022/07/11 14:13:49;;;;;;;14.43;9.20;;;;;;;;;;4995078;28;20553;-60
2022/07/11 14:16:18;;;;;;;14.05;9.25;;;;;;;;;;4995281;28;20038;-56
2022/07/11 14:18:44;;;;;;;13.77;8.80;;;;;;;;;;4994992;28;20030;-59
2022/07/11 14:21:10;;;;;;;13.95;9.10;;;;;;;;;;4993841;28;20030;-58
2022/07/11 14:23:36;;;;;;;15.85;9.25;;;;;;;;;;4995420;28;20120;-59
2022/07/11 14:26:05;;;;;;;14.20;9.00;;;;;;;;;;4994937;28;20034;-60
2022/07/11 14:28:32;;;;;;;13.93;9.00;;;;;;;;;;4303643;28;10000484;-60
2022/07/11 14:30:58;;;;;;;14.20;8.90;;;;;;;;;;4992891;28;20085;-61
2022/07/11 14:33:24;;;;;;;13.90;9.23;;;;;;;;;;4994431;28;20105;-59
2022/07/11 14:35:50;;;;;;;13.95;9.18;;;;;;;;;;4994759;28;20097;-55
2022/07/11 14:38:16;;;;;;;13.75;8.60;;;;;;;;;;4994483;28;20097;-57